createdAt,value
2022-10-22T00:02:33.954Z,2.40
2022-10-22T00:07:37.699Z,2.30
2022-10-22T00:12:41.322Z,2.67
2022-10-22T00:17:46.107Z,2.40
2022-10-22T00:22:53.223Z,2.80
2022-10-22T00:27:56.992Z,2.27
2022-10-22T00:33:01.778Z,2.60
2022-10-22T00:38:05.720Z,2.67
2022-10-22T00:43:12.417Z,2.53
2022-10-22T00:48:21.055Z,2.40
2022-10-22T00:53:27.900Z,2.50
2022-10-22T00:58:34.728Z,2.20
2022-10-22T01:03:39.614Z,2.70
2022-10-22T01:08:51.785Z,2.40
2022-10-22T01:14:04.399Z,2.60
2022-10-22T01:19:27.116Z,2.50
2022-10-22T01:24:39.793Z,2.67
2022-10-22T01:29:49.551Z,2.57
2022-10-22T01:34:56.591Z,2.50
2022-10-22T01:40:02.100Z,3.03
2022-10-22T01:45:14.468Z,2.93
2022-10-22T01:50:36.208Z,2.60
2022-10-22T01:55:49.925Z,2.40
2022-10-22T02:01:01.648Z,2.47
2022-10-22T02:06:15.384Z,2.13
2022-10-22T02:11:19.436Z,2.60
2022-10-22T02:16:30.630Z,2.60
2022-10-22T02:21:34.148Z,2.10
2022-10-22T02:26:41.832Z,2.53
2022-10-22T02:31:49.385Z,2.73
2022-10-22T02:36:54.332Z,2.20
2022-10-22T02:41:58.166Z,2.30
2022-10-22T02:47:02.932Z,2.20
2022-10-22T02:52:06.570Z,2.30
2022-10-22T02:57:10.274Z,2.43
2022-10-22T03:02:21.292Z,2.20
2022-10-22T03:07:24.816Z,2.40
2022-10-22T03:12:28.319Z,2.00
2022-10-22T03:17:33.023Z,2.07
2022-10-22T03:22:38.219Z,2.33
2022-10-22T03:27:43.523Z,2.17
2022-10-22T03:32:48.512Z,2.20
2022-10-22T03:37:52.559Z,2.00
2022-10-22T03:42:56.074Z,2.33
2022-10-22T03:48:01.095Z,2.30
2022-10-22T03:53:05.367Z,2.30
2022-10-22T03:58:09.054Z,2.27
2022-10-22T04:03:13.843Z,2.30
2022-10-22T04:08:17.184Z,2.17
2022-10-22T04:13:20.535Z,2.20
2022-10-22T04:18:25.344Z,3.03
2022-10-22T04:23:28.668Z,1.97
2022-10-22T04:28:32.124Z,2.43
2022-10-22T04:33:37.048Z,2.10
2022-10-22T04:38:41.018Z,2.17
2022-10-22T04:43:44.961Z,2.50
2022-10-22T04:48:50.119Z,2.70
2022-10-22T04:53:53.499Z,2.53
2022-10-22T04:58:59.120Z,2.13
2022-10-22T05:04:05.407Z,2.47
2022-10-22T05:09:13.158Z,2.10
2022-10-22T05:14:18.087Z,2.10
2022-10-22T05:19:25.390Z,2.40
2022-10-22T05:24:29.917Z,2.53
2022-10-22T05:29:33.249Z,2.50
2022-10-22T05:34:38.643Z,2.77
2022-10-22T05:39:42.008Z,2.40
2022-10-22T05:44:45.374Z,2.70
2022-10-22T05:49:50.224Z,2.83
2022-10-22T05:54:53.552Z,3.40
2022-10-22T05:59:57.083Z,2.90
2022-10-22T06:05:01.804Z,3.27
2022-10-22T06:10:06.734Z,2.70
2022-10-22T06:15:11.601Z,2.70
2022-10-22T06:20:16.556Z,4.00
2022-10-22T06:25:20.224Z,4.53
2022-10-22T06:30:23.626Z,3.20
2022-10-22T06:35:28.480Z,3.13
2022-10-22T06:40:32.476Z,3.10
2022-10-22T06:45:35.910Z,2.83
2022-10-22T06:50:40.934Z,3.70
2022-10-22T06:55:44.361Z,2.90
2022-10-22T07:00:48.099Z,2.93
2022-10-22T07:05:53.109Z,3.43
2022-10-22T07:10:56.721Z,2.80
2022-10-22T07:16:00.093Z,2.93
2022-10-22T07:21:05.941Z,2.77
2022-10-22T07:26:11.042Z,2.80
2022-10-22T07:31:16.127Z,3.53
2022-10-22T07:36:20.916Z,3.47
2022-10-22T07:41:24.928Z,2.83
2022-10-22T07:46:28.491Z,2.80
2022-10-22T07:51:33.284Z,2.60
2022-10-22T07:56:36.758Z,2.83
2022-10-22T08:01:40.113Z,2.83
2022-10-22T08:06:47.226Z,2.80
2022-10-22T08:11:50.779Z,2.93
2022-10-22T08:16:54.118Z,2.80
2022-10-22T08:21:58.967Z,2.70
2022-10-22T08:27:02.624Z,2.77
2022-10-22T08:32:06.641Z,2.33
2022-10-22T08:37:17.574Z,2.63
2022-10-22T08:42:51.557Z,2.70
2022-10-22T08:48:09.733Z,2.70
2022-10-22T08:53:19.547Z,2.70
2022-10-22T08:58:28.921Z,2.63
2022-10-22T09:03:39.204Z,2.40
2022-10-22T09:08:45.366Z,2.55
2022-10-22T09:13:50.702Z,2.77
2022-10-22T09:19:11.171Z,2.72
2022-10-22T09:24:23.307Z,2.43
2022-10-22T09:29:34.573Z,2.60
2022-10-22T09:34:38.129Z,2.72
2022-10-22T09:39:46.661Z,3.08
2022-10-22T09:44:54.355Z,2.67
2022-10-22T09:50:17.856Z,2.47
2022-10-22T09:55:25.581Z,2.30
2022-10-22T10:00:29.257Z,2.50
2022-10-22T10:05:34.434Z,4.15
2022-10-22T10:10:46.790Z,2.50
2022-10-22T10:15:56.649Z,2.50
2022-10-22T10:21:07.069Z,2.40
2022-10-22T10:26:20.227Z,2.40
2022-10-22T10:31:38.402Z,2.75
2022-10-22T10:36:52.991Z,3.00
2022-10-22T10:42:10.273Z,2.20
2022-10-22T10:47:31.524Z,2.67
2022-10-22T10:52:43.550Z,2.43
2022-10-22T10:58:00.874Z,2.30
2022-10-22T11:03:45.568Z,2.42
2022-10-22T11:08:55.998Z,2.90
2022-10-22T11:14:06.878Z,2.60
2022-10-22T11:19:22.681Z,3.35
2022-10-22T11:24:29.747Z,2.60
2022-10-22T11:29:39.236Z,2.70
2022-10-22T11:34:48.913Z,3.67
2022-10-22T11:39:55.462Z,2.20
2022-10-22T11:45:06.389Z,2.83
2022-10-22T11:50:21.774Z,2.92
2022-10-22T11:55:46.079Z,3.17
2022-10-22T12:00:51.680Z,2.58
2022-10-22T12:06:20.887Z,2.78
2022-10-22T12:11:27.176Z,2.70
2022-10-22T12:16:55.062Z,2.78
2022-10-22T12:22:01.451Z,2.50
2022-10-22T12:27:08.192Z,3.17
2022-10-22T12:32:14.932Z,2.70
2022-10-22T12:37:19.412Z,2.60
2022-10-22T12:42:23.939Z,3.75
2022-10-22T12:47:31.533Z,3.00
2022-10-22T12:52:34.929Z,3.35
2022-10-22T12:57:39.242Z,3.22
2022-10-22T13:02:45.581Z,2.60
2022-10-22T13:07:50.883Z,3.10
2022-10-22T13:12:58.181Z,2.80
2022-10-22T13:18:09.412Z,2.60
2022-10-22T13:23:20.947Z,3.10
2022-10-22T13:28:25.314Z,2.67
2022-10-22T13:33:34.906Z,4.10
2022-10-22T13:38:38.592Z,3.40
2022-10-22T13:43:41.958Z,3.20
2022-10-22T13:48:48.534Z,3.67
2022-10-22T13:53:54.072Z,5.43
2022-10-22T13:58:57.760Z,4.57
2022-10-22T14:04:03.169Z,4.50
2022-10-22T14:09:09.129Z,3.43
2022-10-22T14:14:14.428Z,3.20
2022-10-22T14:19:20.070Z,3.53
2022-10-22T14:24:26.897Z,3.07
2022-10-22T14:29:32.431Z,3.23
2022-10-22T14:34:37.507Z,2.67
2022-10-22T14:39:41.109Z,3.30
2022-10-22T14:44:44.470Z,3.60
2022-10-22T14:49:49.281Z,3.37
2022-10-22T14:54:53.777Z,4.30
2022-10-22T14:59:57.133Z,3.87
2022-10-22T15:05:01.944Z,3.70
2022-10-22T15:10:09.659Z,3.20
2022-10-22T15:15:13.373Z,3.50
2022-10-22T15:20:18.357Z,3.20
2022-10-22T15:25:21.714Z,3.70
2022-10-22T15:30:25.364Z,3.13
2022-10-22T15:35:30.280Z,2.90
2022-10-22T15:40:33.773Z,3.03
2022-10-22T15:45:37.440Z,3.00
2022-10-22T15:50:42.305Z,3.20
2022-10-22T15:55:50.238Z,2.90
2022-10-22T16:00:53.668Z,3.27
2022-10-22T16:05:58.801Z,3.67
2022-10-22T16:11:02.282Z,3.10
2022-10-22T16:16:08.143Z,3.17
2022-10-22T16:21:15.822Z,3.70
2022-10-22T16:26:20.522Z,3.27
2022-10-22T16:31:23.886Z,3.13
2022-10-22T16:36:28.794Z,3.10
2022-10-22T16:41:35.417Z,3.40
2022-10-22T16:46:39.115Z,3.50
2022-10-22T16:51:44.079Z,3.20
2022-10-22T16:56:47.437Z,3.10
2022-10-22T17:01:50.917Z,3.50
2022-10-22T17:06:55.765Z,3.30
2022-10-22T17:11:59.197Z,3.53
2022-10-22T17:17:02.564Z,5.13
2022-10-22T17:22:07.340Z,4.27
2022-10-22T17:27:12.050Z,4.10
2022-10-22T17:32:17.838Z,4.23
2022-10-22T17:37:23.008Z,4.00
2022-10-22T17:42:26.453Z,3.83
2022-10-22T17:47:30.081Z,3.43
2022-10-22T17:52:34.977Z,4.10
2022-10-22T17:57:39.485Z,3.30
2022-10-22T18:02:43.679Z,3.17
2022-10-22T18:07:48.841Z,3.70
2022-10-22T18:12:52.253Z,3.43
2022-10-22T18:17:55.646Z,3.17
2022-10-22T18:23:00.706Z,3.33
2022-10-22T18:28:04.144Z,3.23
2022-10-22T18:33:07.976Z,3.37
2022-10-22T18:38:12.897Z,3.07
2022-10-22T18:43:16.808Z,2.87
2022-10-22T18:48:22.996Z,3.20
2022-10-22T18:53:28.868Z,3.03
2022-10-22T18:58:32.638Z,3.03
2022-10-22T19:03:36.136Z,2.80
2022-10-22T19:08:41.227Z,3.00
2022-10-22T19:13:44.778Z,2.73
2022-10-22T19:18:48.177Z,2.70
2022-10-22T19:23:53.081Z,3.03
2022-10-22T19:28:57.101Z,3.10
2022-10-22T19:34:01.731Z,2.97
2022-10-22T19:39:07.791Z,3.60
2022-10-22T19:44:11.614Z,3.00
2022-10-22T19:49:18.847Z,2.80
2022-10-22T19:54:26.832Z,2.97
2022-10-22T19:59:32.128Z,3.10
2022-10-22T20:04:37.426Z,2.80
2022-10-22T20:09:42.491Z,2.80
2022-10-22T20:14:45.863Z,2.97
2022-10-22T20:19:49.227Z,3.33
2022-10-22T20:24:54.415Z,3.50
2022-10-22T20:29:57.789Z,3.00
2022-10-22T20:35:01.514Z,3.40
2022-10-22T20:40:09.050Z,3.00
2022-10-22T20:45:12.438Z,3.40
2022-10-22T20:50:16.142Z,3.43
2022-10-22T20:55:21.840Z,3.80
2022-10-22T21:00:25.248Z,3.50
2022-10-22T21:05:28.693Z,3.20
2022-10-22T21:10:33.552Z,3.57
2022-10-22T21:15:36.930Z,3.43
2022-10-22T21:20:41.032Z,3.43
2022-10-22T21:25:55.716Z,3.27
2022-10-22T21:30:59.555Z,3.40
2022-10-22T21:36:02.945Z,3.33
2022-10-22T21:41:09.449Z,3.53
2022-10-22T21:46:14.713Z,3.90
2022-10-22T21:51:19.989Z,3.20
2022-10-22T21:56:27.999Z,4.00
2022-10-22T22:01:31.722Z,3.53
2022-10-22T22:06:35.271Z,3.63
2022-10-22T22:11:40.178Z,3.80
2022-10-22T22:16:43.556Z,3.17
2022-10-22T22:21:47.205Z,3.33
2022-10-22T22:26:52.021Z,3.50
2022-10-22T22:31:55.549Z,4.10
2022-10-22T22:36:59.205Z,3.93
2022-10-22T22:42:03.984Z,4.00
2022-10-22T22:47:07.447Z,4.03
2022-10-22T22:52:10.995Z,4.63
2022-10-22T22:57:16.932Z,4.43
2022-10-22T23:02:20.332Z,3.77
2022-10-22T23:07:23.811Z,4.47
2022-10-22T23:12:29.027Z,3.50
2022-10-22T23:17:32.708Z,4.30
2022-10-22T23:22:36.124Z,4.67
2022-10-22T23:27:41.502Z,4.37
2022-10-22T23:32:45.393Z,4.00
2022-10-22T23:37:48.776Z,4.33
2022-10-22T23:42:53.824Z,4.40
2022-10-22T23:47:57.547Z,4.20
2022-10-22T23:53:00.955Z,4.87
2022-10-22T23:58:06.041Z,4.80
